Time;durP1;ratioP1;P1;durP2;ratioP2;P2;SDS_P1;SDS_P2;PMS_P1;PMS_P2;Temp;Humidity;BMP_temperature;BMP_pressure;BME280_temperature;BME280_humidity;BME280_pressure;Samples;Min_cycle;Max_cycle;Signal;HPM_P1;HPM_P2
2021/10/01 00:00:14;;;;;;;0.40;0.40;;;7.20;99.90;;;;;;5138723;27;20164;-67
2021/10/01 00:02:41;;;;;;;0.30;0.30;;;7.20;99.90;;;;;;5139168;27;20248;-68
2021/10/01 00:05:07;;;;;;;0.30;0.30;;;7.20;99.90;;;;;;5138284;27;20389;-68
2021/10/01 00:07:33;;;;;;;0.40;0.40;;;7.10;99.90;;;;;;5138781;27;20167;-66
2021/10/01 00:09:59;;;;;;;0.40;0.40;;;7.10;99.90;;;;;;5138380;27;20216;-68
2021/10/01 00:12:25;;;;;;;0.33;0.33;;;7.10;99.90;;;;;;5138409;27;20443;-69
2021/10/01 00:14:51;;;;;;;0.40;0.40;;;7.10;99.90;;;;;;5138054;27;20246;-69
2021/10/01 00:17:17;;;;;;;0.30;0.30;;;7.00;99.90;;;;;;5138566;27;20335;-67
2021/10/01 00:19:44;;;;;;;0.33;0.33;;;7.10;99.90;;;;;;5138198;27;20164;-65
2021/10/01 00:22:09;;;;;;;0.30;0.30;;;7.10;99.90;;;;;;5138220;27;20409;-69
2021/10/01 00:24:35;;;;;;;0.40;0.40;;;7.10;99.90;;;;;;5137955;27;20276;-68
2021/10/01 00:27:02;;;;;;;0.30;0.30;;;7.10;99.90;;;;;;5138221;27;20168;-68
2021/10/01 00:29:27;;;;;;;0.40;0.40;;;7.00;99.90;;;;;;5138125;27;20171;-66
2021/10/01 00:31:53;;;;;;;0.30;0.30;;;7.00;99.90;;;;;;5137873;27;20171;-69
2021/10/01 00:34:19;;;;;;;0.33;0.33;;;7.00;99.90;;;;;;5137667;27;20183;-67
2021/10/01 00:36:44;;;;;;;0.40;0.40;;;7.00;99.90;;;;;;5137535;27;20195;-67
2021/10/01 00:39:10;;;;;;;0.30;0.30;;;7.00;99.90;;;;;;5136254;27;20405;-68
2021/10/01 00:41:37;;;;;;;0.30;0.30;;;7.10;99.90;;;;;;5136473;27;20251;-66
2021/10/01 00:44:03;;;;;;;0.30;0.30;;;7.10;99.90;;;;;;5136774;27;20183;-66
2021/10/01 00:46:30;;;;;;;0.32;0.32;;;7.20;99.90;;;;;;5136921;27;20232;-67
2021/10/01 00:48:56;;;;;;;0.30;0.30;;;7.10;99.90;;;;;;5136969;27;20528;-66
2021/10/01 00:51:23;;;;;;;0.30;0.30;;;7.10;99.90;;;;;;5137018;27;20172;-68
2021/10/01 00:53:50;;;;;;;0.40;0.40;;;7.10;99.90;;;;;;5137246;27;20191;-66
2021/10/01 00:56:16;;;;;;;0.30;0.30;;;7.10;99.90;;;;;;5137503;27;20216;-69
2021/10/01 00:58:41;;;;;;;0.40;0.40;;;7.10;99.90;;;;;;5138082;27;20247;-69
2021/10/01 01:01:10;;;;;;;0.30;0.30;;;7.10;99.90;;;;;;5136901;27;20399;-67
2021/10/01 01:03:49;;;;;;;0.30;0.30;;;7.10;99.90;;;;;;5137054;27;20187;-67
2021/10/01 01:06:32;;;;;;;0.30;0.30;;;7.10;99.90;;;;;;5137519;27;20167;-68
2021/10/01 01:09:02;;;;;;;0.30;0.30;;;7.10;99.90;;;;;;5137137;27;20168;-67
2021/10/01 01:12:19;;;;;;;0.30;0.30;;;7.10;99.90;;;;;;5137389;27;20523;-67
2021/10/01 01:14:54;;;;;;;0.40;0.40;;;7.20;99.90;;;;;;5080580;27;20587;-68
2021/10/01 01:17:41;;;;;;;0.30;0.30;;;7.20;99.90;;;;;;5137268;27;20638;-67
2021/10/01 01:20:12;;;;;;;0.30;0.30;;;7.20;99.90;;;;;;5118578;27;20648;-68
2021/10/01 01:22:47;;;;;;;0.30;0.30;;;7.20;99.90;;;;;;5136837;27;20709;-66
2021/10/01 01:25:44;;;;;;;0.30;0.30;;;7.20;99.90;;;;;;5136780;27;20170;-65
2021/10/01 01:28:38;;;;;;;0.32;0.32;;;7.10;99.90;;;;;;5137141;27;20182;-68
2021/10/01 01:31:27;;;;;;;0.30;0.30;;;7.10;99.90;;;;;;5137080;27;20175;-69
2021/10/01 01:33:57;;;;;;;0.40;0.40;;;7.10;99.90;;;;;;5118225;27;20290;-68
2021/10/01 01:36:23;;;;;;;0.40;0.40;;;7.10;99.90;;;;;;5136765;27;20195;-67
2021/10/01 01:38:53;;;;;;;0.30;0.30;;;7.10;99.90;;;;;;5136896;27;20182;-67
2021/10/01 01:41:21;;;;;;;0.30;0.30;;;7.20;99.90;;;;;;5137002;27;20191;-66
2021/10/01 01:43:47;;;;;;;0.30;0.30;;;7.20;99.90;;;;;;5136421;27;20745;-69
2021/10/01 01:46:14;;;;;;;0.40;0.40;;;7.20;99.90;;;;;;5136500;27;20184;-67
2021/10/01 01:48:41;;;;;;;0.30;0.30;;;7.20;99.90;;;;;;5136413;27;20574;-68
2021/10/01 01:51:08;;;;;;;0.40;0.40;;;7.10;99.90;;;;;;5136410;27;20519;-68
2021/10/01 01:53:35;;;;;;;0.30;0.30;;;7.10;99.90;;;;;;5136112;27;20539;-69
2021/10/01 01:56:01;;;;;;;0.30;0.30;;;7.00;99.90;;;;;;5136360;27;20159;-67
2021/10/01 01:58:28;;;;;;;0.30;0.30;;;7.00;99.90;;;;;;5136477;27;20177;-66
2021/10/01 02:00:54;;;;;;;0.30;0.30;;;7.00;99.90;;;;;;5136363;27;20171;-68
2021/10/01 02:03:21;;;;;;;0.30;0.30;;;6.90;99.90;;;;;;5136085;27;20214;-67
2021/10/01 02:05:48;;;;;;;0.30;0.30;;;6.90;99.90;;;;;;5136085;27;20891;-69
2021/10/01 02:08:16;;;;;;;0.40;0.40;;;7.00;99.90;;;;;;5136431;27;20172;-68
2021/10/01 02:10:43;;;;;;;0.30;0.30;;;7.00;99.90;;;;;;5136122;27;20172;-67
2021/10/01 02:13:10;;;;;;;0.30;0.30;;;7.10;99.90;;;;;;5134633;27;20606;-68
2021/10/01 02:15:37;;;;;;;0.40;0.40;;;7.10;99.90;;;;;;5136109;27;20167;-67
2021/10/01 02:18:05;;;;;;;0.30;0.30;;;7.10;99.90;;;;;;5135743;27;20199;-66
2021/10/01 02:20:34;;;;;;;0.40;0.40;;;7.00;99.90;;;;;;5135822;27;20171;-68
2021/10/01 02:23:01;;;;;;;0.30;0.30;;;7.00;99.90;;;;;;5135810;27;20211;-69
2021/10/01 02:28:19;;;;;;;0.30;0.30;;;7.00;99.90;;;;;;5135879;27;20174;-65
2021/10/01 02:30:46;;;;;;;0.40;0.40;;;7.00;99.90;;;;;;5135733;27;20245;-67
2021/10/01 02:33:20;;;;;;;0.30;0.30;;;7.00;99.90;;;;;;5135334;27;20191;-68
2021/10/01 02:35:46;;;;;;;0.40;0.40;;;7.00;99.90;;;;;;5135744;27;20205;-67
2021/10/01 02:38:11;;;;;;;0.30;0.30;;;7.10;99.90;;;;;;5135624;27;20676;-65
2021/10/01 02:40:37;;;;;;;0.33;0.33;;;7.00;99.90;;;;;;5135494;27;20796;-66
2021/10/01 02:43:03;;;;;;;0.40;0.40;;;7.10;99.90;;;;;;5135489;27;20195;-67
2021/10/01 02:45:29;;;;;;;0.40;0.40;;;7.10;99.90;;;;;;5135162;27;20169;-68
2021/10/01 02:47:54;;;;;;;0.30;0.30;;;7.10;99.90;;;;;;5135255;27;20183;-66
2021/10/01 02:50:22;;;;;;;0.40;0.40;;;7.10;99.90;;;;;;5135444;27;20686;-67
2021/10/01 02:53:03;;;;;;;0.40;0.40;;;7.00;99.90;;;;;;5135310;27;20439;-66
2021/10/01 02:56:04;;;;;;;0.38;0.38;;;7.00;99.90;;;;;;5135155;27;20250;-68
2021/10/01 02:58:44;;;;;;;0.30;0.30;;;7.10;99.90;;;;;;5135333;27;20183;-68
2021/10/01 03:01:11;;;;;;;0.30;0.30;;;7.10;99.90;;;;;;5135285;27;20160;-67
2021/10/01 03:03:41;;;;;;;0.30;0.30;;;7.20;99.90;;;;;;5134785;27;20246;-67
2021/10/01 03:06:07;;;;;;;0.40;0.40;;;7.20;99.90;;;;;;5134958;27;20170;-67
2021/10/01 03:08:34;;;;;;;0.30;0.30;;;7.30;99.90;;;;;;5134912;27;20174;-68
2021/10/01 03:11:01;;;;;;;0.30;0.30;;;7.30;99.90;;;;;;5135058;27;20174;-68
2021/10/01 03:13:27;;;;;;;0.40;0.40;;;7.20;99.90;;;;;;5134657;27;20677;-67
2021/10/01 03:15:56;;;;;;;0.30;0.30;;;7.20;99.90;;;;;;5135007;27;20251;-69
2021/10/01 03:18:22;;;;;;;0.30;0.30;;;7.20;99.90;;;;;;5134852;27;20203;-67
2021/10/01 03:20:49;;;;;;;0.30;0.30;;;7.20;99.90;;;;;;5134763;27;20196;-69
2021/10/01 03:23:18;;;;;;;0.30;0.30;;;7.20;99.90;;;;;;5134374;27;20196;-67
2021/10/01 03:25:44;;;;;;;0.35;0.35;;;7.10;99.90;;;;;;5134596;27;20167;-65
2021/10/01 03:28:10;;;;;;;0.30;0.30;;;7.10;99.90;;;;;;5134779;27;20755;-66
2021/10/01 03:30:39;;;;;;;0.30;0.30;;;7.10;99.90;;;;;;5134616;27;20400;-67
2021/10/01 03:33:05;;;;;;;0.88;0.88;;;7.10;99.90;;;;;;5134387;27;20563;-67
2021/10/01 03:35:31;;;;;;;0.30;0.30;;;7.20;99.90;;;;;;5134405;27;20171;-65
2021/10/01 03:37:59;;;;;;;0.30;0.30;;;7.20;99.90;;;;;;5134606;27;20198;-68
2021/10/01 03:40:32;;;;;;;0.40;0.40;;;7.20;99.90;;;;;;5134398;27;20660;-67
2021/10/01 03:42:59;;;;;;;0.30;0.30;;;7.20;99.90;;;;;;5134527;27;20180;-68
2021/10/01 03:45:25;;;;;;;0.45;0.45;;;7.30;99.90;;;;;;5134380;27;20167;-68
2021/10/01 03:47:51;;;;;;;0.30;0.30;;;7.30;99.90;;;;;;5134320;28;20179;-67
2021/10/01 03:50:16;;;;;;;0.32;0.32;;;7.30;99.90;;;;;;5134392;28;20176;-66
2021/10/01 03:52:42;;;;;;;0.40;0.40;;;7.40;99.90;;;;;;5134440;28;20194;-67
2021/10/01 03:55:08;;;;;;;0.40;0.40;;;7.30;99.90;;;;;;5134252;28;20175;-68
2021/10/01 03:57:35;;;;;;;0.30;0.30;;;7.30;99.90;;;;;;5134356;28;20957;-66
2021/10/01 04:00:05;;;;;;;0.30;0.30;;;7.30;99.90;;;;;;5134421;28;20182;-65
2021/10/01 04:02:31;;;;;;;0.30;0.30;;;7.30;99.90;;;;;;5134183;28;20159;-67
2021/10/01 04:04:56;;;;;;;0.40;0.40;;;7.30;99.90;;;;;;5134183;28;20527;-65
2021/10/01 04:07:22;;;;;;;0.30;0.30;;;7.30;99.90;;;;;;5134244;28;20167;-68
2021/10/01 04:09:47;;;;;;;0.30;0.30;;;7.30;99.90;;;;;;5134323;28;20175;-68
2021/10/01 04:12:14;;;;;;;0.30;0.30;;;7.20;99.90;;;;;;5134341;28;20168;-67
2021/10/01 04:14:40;;;;;;;0.40;0.40;;;7.20;99.90;;;;;;5133903;28;20199;-66
2021/10/01 04:17:06;;;;;;;0.40;0.40;;;7.30;99.90;;;;;;5115614;28;20240;-68
2021/10/01 04:19:31;;;;;;;0.40;0.40;;;7.30;99.90;;;;;;5134119;28;20405;-66
2021/10/01 04:21:57;;;;;;;0.30;0.30;;;7.40;99.90;;;;;;5134181;28;20174;-67
2021/10/01 04:24:24;;;;;;;0.30;0.30;;;7.40;99.90;;;;;;5133697;28;20266;-69
2021/10/01 04:26:50;;;;;;;0.30;0.30;;;7.40;99.90;;;;;;5133895;28;20222;-68
2021/10/01 04:29:15;;;;;;;0.30;0.30;;;7.40;99.90;;;;;;5133834;28;20199;-65
2021/10/01 04:31:41;;;;;;;0.30;0.30;;;7.40;99.90;;;;;;5133981;28;20214;-67
2021/10/01 04:34:07;;;;;;;0.30;0.30;;;7.30;99.90;;;;;;5133796;28;20302;-68
2021/10/01 04:36:34;;;;;;;0.30;0.30;;;7.30;99.90;;;;;;5135739;27;20719;-67
2021/10/01 04:39:00;;;;;;;0.30;0.30;;;7.30;99.90;;;;;;5137897;27;20863;-68
2021/10/01 04:41:27;;;;;;;0.40;0.40;;;7.30;99.90;;;;;;5137921;27;20174;-66
2021/10/01 04:43:53;;;;;;;0.30;0.30;;;7.30;99.90;;;;;;5137470;27;20195;-67
2021/10/01 04:46:20;;;;;;;0.30;0.30;;;7.40;99.90;;;;;;5137512;27;20593;-68
2021/10/01 04:48:46;;;;;;;0.30;0.30;;;7.50;99.90;;;;;;5137804;27;20648;-67
2021/10/01 04:51:11;;;;;;;0.30;0.30;;;7.40;99.90;;;;;;5137650;27;20167;-68
2021/10/01 04:53:37;;;;;;;0.30;0.30;;;7.40;99.90;;;;;;5137142;27;20187;-67
2021/10/01 04:56:03;;;;;;;0.30;0.30;;;7.40;99.90;;;;;;5137667;27;20176;-67
2021/10/01 04:58:29;;;;;;;0.30;0.30;;;7.40;99.90;;;;;;5137791;27;20268;-68
2021/10/01 05:00:54;;;;;;;0.30;0.30;;;7.40;99.90;;;;;;5136629;27;20407;-67
2021/10/01 05:03:20;;;;;;;0.30;0.30;;;7.30;99.90;;;;;;5136969;27;20188;-67
2021/10/01 05:05:45;;;;;;;0.30;0.30;;;7.20;99.90;;;;;;5137183;27;20538;-67
2021/10/01 05:08:11;;;;;;;0.30;0.30;;;7.20;99.90;;;;;;5137463;27;20172;-67
2021/10/01 05:10:37;;;;;;;0.30;0.30;;;7.40;99.90;;;;;;5137382;27;20179;-68
2021/10/01 05:13:02;;;;;;;0.30;0.30;;;7.40;99.90;;;;;;5137513;27;20191;-67
2021/10/01 05:15:28;;;;;;;0.30;0.30;;;7.40;99.90;;;;;;5137010;27;20176;-67
2021/10/01 05:17:54;;;;;;;0.30;0.30;;;7.50;99.90;;;;;;5137114;27;20203;-68
2021/10/01 05:20:19;;;;;;;0.30;0.30;;;7.50;99.90;;;;;;5137176;27;20171;-67
2021/10/01 05:22:45;;;;;;;0.30;0.30;;;7.60;99.90;;;;;;5137026;27;20668;-67
2021/10/01 05:25:11;;;;;;;0.30;0.30;;;7.50;99.90;;;;;;5136896;27;20420;-68
2021/10/01 05:27:37;;;;;;;0.30;0.30;;;7.60;99.90;;;;;;5137373;27;20180;-65
2021/10/01 05:30:04;;;;;;;0.30;0.30;;;7.60;99.90;;;;;;5136942;27;20172;-68
2021/10/01 05:32:30;;;;;;;0.30;0.30;;;7.60;99.90;;;;;;5136636;27;20946;-66
2021/10/01 05:34:56;;;;;;;0.30;0.30;;;7.60;99.90;;;;;;5136729;27;20258;-67
2021/10/01 05:37:21;;;;;;;0.30;0.30;;;7.60;99.90;;;;;;5136609;27;20240;-68
2021/10/01 05:39:47;;;;;;;0.30;0.30;;;7.60;99.90;;;;;;5136847;27;20167;-68
2021/10/01 05:42:13;;;;;;;0.30;0.30;;;7.60;99.90;;;;;;5137302;27;20713;-66
2021/10/01 05:44:38;;;;;;;0.30;0.30;;;7.60;99.90;;;;;;5136354;27;20417;-68
2021/10/01 05:47:06;;;;;;;0.30;0.30;;;7.60;99.90;;;;;;5136358;27;20562;-69
2021/10/01 05:49:38;;;;;;;0.30;0.30;;;7.60;99.90;;;;;;5136627;27;20167;-68
2021/10/01 05:52:24;;;;;;;0.32;0.32;;;7.60;99.90;;;;;;5136656;27;20169;-68
2021/10/01 05:54:51;;;;;;;0.30;0.30;;;7.60;99.90;;;;;;5136259;27;20163;-68
2021/10/01 05:57:18;;;;;;;0.30;0.30;;;7.70;99.90;;;;;;5136428;27;20261;-67
2021/10/01 05:59:45;;;;;;;0.40;0.40;;;7.70;99.90;;;;;;5136374;27;20175;-68
2021/10/01 06:02:14;;;;;;;0.32;0.32;;;7.70;99.90;;;;;;5136343;27;20218;-68
2021/10/01 06:04:40;;;;;;;0.30;0.30;;;7.80;99.90;;;;;;5135936;27;20192;-69
2021/10/01 06:07:06;;;;;;;0.30;0.30;;;7.80;99.90;;;;;;5136297;27;20187;-66
2021/10/01 06:09:32;;;;;;;0.30;0.30;;;7.80;99.90;;;;;;5136125;27;20220;-68
2021/10/01 06:11:58;;;;;;;0.30;0.30;;;7.80;99.90;;;;;;5136286;27;20172;-66
2021/10/01 06:14:25;;;;;;;0.30;0.30;;;7.80;99.90;;;;;;5135837;27;20421;-68
2021/10/01 06:16:52;;;;;;;0.32;0.32;;;7.90;99.90;;;;;;5135958;27;20453;-65
2021/10/01 06:19:19;;;;;;;0.30;0.30;;;8.00;99.90;;;;;;5135856;27;20629;-67
2021/10/01 06:21:45;;;;;;;0.32;0.32;;;8.00;99.90;;;;;;5135722;27;20164;-68
2021/10/01 06:24:12;;;;;;;0.30;0.30;;;8.00;99.90;;;;;;5135550;27;20240;-67
2021/10/01 06:26:38;;;;;;;0.30;0.30;;;8.00;99.90;;;;;;5135975;27;20573;-69
2021/10/01 06:29:04;;;;;;;0.30;0.30;;;8.00;99.90;;;;;;5135913;27;20172;-66
2021/10/01 06:31:30;;;;;;;0.30;0.30;;;7.90;99.90;;;;;;5135830;27;20254;-69
2021/10/01 06:33:56;;;;;;;0.30;0.30;;;7.90;99.90;;;;;;5135320;27;20303;-68
2021/10/01 06:36:23;;;;;;;0.30;0.30;;;7.80;99.90;;;;;;5134934;27;20643;-66
2021/10/01 06:38:50;;;;;;;0.30;0.30;;;8.00;99.90;;;;;;5134915;27;20599;-69
2021/10/01 06:41:15;;;;;;;0.40;0.40;;;8.10;99.90;;;;;;5135373;27;20170;-68
2021/10/01 06:43:43;;;;;;;0.30;0.30;;;8.20;99.90;;;;;;5134991;27;20239;-66
2021/10/01 06:46:20;;;;;;;0.30;0.30;;;8.30;99.90;;;;;;5135381;27;20176;-66
2021/10/01 06:48:55;;;;;;;0.30;0.30;;;8.40;99.90;;;;;;5135498;27;20234;-67
2021/10/01 08:20:46;;;;;;;0.30;0.30;;;15.30;93.80;;;;;;5138337;27;20400;-69
2021/10/01 08:23:12;;;;;;;0.30;0.30;;;15.80;92.80;;;;;;5138304;27;20764;-67
2021/10/01 08:25:38;;;;;;;0.40;0.40;;;16.40;92.60;;;;;;5138512;27;20168;-71
2021/10/01 08:28:05;;;;;;;0.50;0.50;;;17.50;90.90;;;;;;5138578;27;20412;-71
2021/10/01 08:30:31;;;;;;;0.40;0.40;;;19.10;86.20;;;;;;5138695;27;20461;-68
2021/10/01 08:32:57;;;;;;;0.50;0.50;;;20.70;78.70;;;;;;5138154;27;20420;-70
2021/10/01 08:35:24;;;;;;;0.30;0.30;;;21.90;74.40;;;;;;5137939;27;20184;-70
2021/10/01 08:37:51;;;;;;;0.30;0.30;;;23.20;68.20;;;;;;5138138;27;20289;-71
2021/10/01 08:40:16;;;;;;;0.30;0.30;;;24.40;64.70;;;;;;5138388;27;20863;-69
2021/10/01 08:42:44;;;;;;;0.40;0.40;;;25.80;58.50;;;;;;5138112;27;20414;-71
2021/10/01 08:45:11;;;;;;;0.80;0.80;;;26.90;56.00;;;;;;5137817;27;20168;-71
2021/10/01 08:47:37;;;;;;;0.60;0.60;;;28.00;50.20;;;;;;5137632;27;20422;-69
2021/10/01 08:50:04;;;;;;;0.30;0.30;;;28.80;48.40;;;;;;5137865;27;20511;-68
2021/10/01 08:52:30;;;;;;;0.70;0.70;;;29.40;46.00;;;;;;5137784;27;20374;-70
2021/10/01 08:54:58;;;;;;;0.30;0.30;;;29.70;43.70;;;;;;5137940;27;20483;-68
2021/10/01 08:57:25;;;;;;;0.30;0.30;;;30.00;42.30;;;;;;5138060;27;20456;-68
2021/10/01 08:59:51;;;;;;;0.30;0.30;;;30.40;41.80;;;;;;5138139;27;20454;-67
2021/10/01 09:02:19;;;;;;;0.40;0.40;;;30.70;42.50;;;;;;5137430;27;20399;-71
2021/10/01 09:04:45;;;;;;;0.40;0.40;;;30.80;41.50;;;;;;5137442;27;20424;-70
2021/10/01 09:07:11;;;;;;;0.30;0.30;;;31.10;40.80;;;;;;5137717;27;20397;-71
2021/10/01 09:09:40;;;;;;;0.30;0.30;;;31.10;39.60;;;;;;5137762;27;20551;-71
2021/10/01 09:12:06;;;;;;;0.30;0.30;;;31.40;41.20;;;;;;5137571;27;20168;-71
2021/10/01 09:14:43;;;;;;;0.30;0.30;;;31.70;40.10;;;;;;5136993;27;20682;-70
2021/10/01 09:17:14;;;;;;;1.27;1.17;;;32.00;38.40;;;;;;5137544;27;20440;-71
2021/10/01 09:19:41;;;;;;;0.40;0.40;;;32.10;38.90;;;;;;5137516;27;20441;-71
2021/10/01 09:22:07;;;;;;;0.30;0.30;;;32.30;37.90;;;;;;5137010;27;20417;-69
2021/10/01 09:24:35;;;;;;;0.30;0.30;;;32.10;37.20;;;;;;5136950;27;20429;-70
2021/10/01 09:27:01;;;;;;;0.30;0.30;;;31.90;37.70;;;;;;5137308;27;20164;-71
2021/10/01 09:29:31;;;;;;;0.30;0.30;;;31.80;34.80;;;;;;5136721;27;20405;-71
2021/10/01 09:32:08;;;;;;;0.30;0.30;;;31.30;34.20;;;;;;5137052;27;20404;-69
2021/10/01 09:34:38;;;;;;;0.30;0.30;;;30.90;36.40;;;;;;5135306;27;20785;-67
2021/10/01 09:37:07;;;;;;;0.40;0.40;;;30.40;36.80;;;;;;5136661;27;20432;-70
2021/10/01 09:39:36;;;;;;;0.30;0.30;;;30.50;36.70;;;;;;5136712;27;20405;-70
2021/10/01 09:42:15;;;;;;;0.30;0.30;;;30.70;34.90;;;;;;5135602;27;20397;-70
2021/10/01 09:44:47;;;;;;;0.40;0.40;;;30.50;34.00;;;;;;5136500;27;20462;-72
2021/10/01 09:47:13;;;;;;;0.30;0.30;;;30.10;34.70;;;;;;5136690;27;20519;-69
2021/10/01 09:49:39;;;;;;;0.30;0.30;;;29.00;35.30;;;;;;5136681;27;20470;-69
2021/10/01 09:52:05;;;;;;;0.30;0.30;;;28.70;36.70;;;;;;5136652;27;20874;-68
2021/10/01 09:54:31;;;;;;;0.40;0.40;;;28.60;37.30;;;;;;5136168;27;20442;-71
2021/10/01 09:57:06;;;;;;;0.30;0.30;;;28.30;37.30;;;;;;5136316;27;20427;-71
2021/10/01 09:59:33;;;;;;;0.30;0.30;;;28.20;37.20;;;;;;5136390;27;20484;-70
2021/10/01 10:02:12;;;;;;;0.53;0.53;;;28.00;37.70;;;;;;5136520;27;20410;-68
2021/10/01 10:04:43;;;;;;;0.40;0.40;;;27.70;38.50;;;;;;5135974;27;20427;-68
2021/10/01 10:07:35;;;;;;;0.30;0.30;;;27.20;38.50;;;;;;5136394;27;20409;-68
2021/10/01 10:10:07;;;;;;;0.30;0.30;;;27.10;40.50;;;;;;5131095;27;20447;-70
2021/10/01 10:12:32;;;;;;;0.50;0.50;;;27.50;40.80;;;;;;5136139;27;20433;-69
2021/10/01 10:14:58;;;;;;;0.40;0.40;;;27.90;40.00;;;;;;5135631;27;20408;-71
2021/10/01 10:17:26;;;;;;;0.30;0.30;;;28.10;39.00;;;;;;5135799;27;20205;-69
2021/10/01 10:19:54;;;;;;;0.30;0.30;;;27.80;39.40;;;;;;5136162;27;20231;-70
2021/10/01 10:22:20;;;;;;;0.30;0.30;;;27.60;40.00;;;;;;5136010;27;20413;-71
2021/10/01 10:24:48;;;;;;;2.13;2.03;;;27.20;41.40;;;;;;5135776;27;20397;-68
2021/10/01 10:27:14;;;;;;;0.30;0.30;;;27.10;40.80;;;;;;5135992;27;20405;-69
2021/10/01 10:29:42;;;;;;;0.40;0.40;;;26.80;41.10;;;;;;5135663;27;20409;-71
2021/10/01 10:32:10;;;;;;;0.30;0.30;;;26.40;42.60;;;;;;5135884;27;20404;-71
2021/10/01 10:34:48;;;;;;;0.30;0.30;;;26.20;42.80;;;;;;5134449;27;20428;-69
2021/10/01 10:37:14;;;;;;;0.30;0.30;;;26.00;43.70;;;;;;5135762;27;20445;-68
2021/10/01 10:39:46;;;;;;;0.30;0.30;;;26.20;43.80;;;;;;5135444;27;20458;-70
2021/10/01 10:42:14;;;;;;;0.57;0.50;;;26.40;44.50;;;;;;5135882;27;20197;-69
2021/10/01 10:44:42;;;;;;;0.30;0.30;;;26.20;44.10;;;;;;5135238;27;20420;-68
2021/10/01 10:47:09;;;;;;;0.30;0.30;;;25.80;46.10;;;;;;5135362;27;20427;-70
2021/10/01 10:49:34;;;;;;;0.30;0.30;;;25.20;48.10;;;;;;5135486;27;20408;-68
2021/10/01 10:52:03;;;;;;;0.30;0.30;;;25.00;46.30;;;;;;5135483;27;20409;-70
2021/10/01 10:54:31;;;;;;;0.30;0.30;;;24.90;47.50;;;;;;5134915;27;20190;-69
2021/10/01 10:57:15;;;;;;;0.77;0.77;;;24.80;48.80;;;;;;5135158;27;20889;-70
2021/10/01 10:59:45;;;;;;;0.30;0.30;;;24.90;47.50;;;;;;5135219;27;20406;-71
2021/10/01 11:05:20;;;;;;;0.30;0.30;;;24.60;49.00;;;;;;5135217;27;20371;-71
2021/10/01 11:07:57;;;;;;;0.40;0.40;;;24.30;48.80;;;;;;5134973;27;20380;-71
2021/10/01 11:10:43;;;;;;;0.30;0.30;;;24.30;52.60;;;;;;5135234;27;20378;-69
2021/10/01 11:13:23;;;;;;;0.40;0.40;;;24.20;50.90;;;;;;5134679;27;20421;-70
2021/10/01 11:16:08;;;;;;;0.30;0.30;;;24.10;51.20;;;;;;5134904;27;20380;-70
2021/10/01 11:18:43;;;;;;;0.30;0.30;;;24.10;52.60;;;;;;5134847;27;20780;-68
2021/10/01 11:21:30;;;;;;;0.40;0.40;;;24.10;52.20;;;;;;5134935;27;20406;-68
2021/10/01 11:24:04;;;;;;;0.50;0.50;;;23.60;51.30;;;;;;5134591;27;20424;-68
2021/10/01 11:26:33;;;;;;;0.40;0.40;;;23.40;52.30;;;;;;5134993;27;20419;-68
2021/10/01 11:29:00;;;;;;;0.30;0.30;;;23.30;52.70;;;;;;5134775;27;20900;-68
2021/10/01 11:31:38;;;;;;;0.87;0.50;;;23.20;56.30;;;;;;5134848;27;20406;-69
2021/10/01 11:34:05;;;;;;;0.47;0.40;;;23.10;56.40;;;;;;5134419;27;20430;-70
2021/10/01 11:36:31;;;;;;;0.60;0.60;;;22.80;56.30;;;;;;5134429;27;20437;-70
2021/10/01 11:39:16;;;;;;;0.60;0.60;;;22.70;54.90;;;;;;5134573;27;20406;-69
2021/10/01 11:41:47;;;;;;;0.30;0.30;;;22.90;56.00;;;;;;5134616;27;20392;-70
2021/10/01 11:44:16;;;;;;;0.30;0.30;;;23.00;56.60;;;;;;5134557;27;20425;-70
2021/10/01 11:46:46;;;;;;;0.53;0.53;;;23.00;53.50;;;;;;5115810;27;20447;-69
2021/10/01 11:49:19;;;;;;;0.30;0.30;;;23.00;53.60;;;;;;5134420;27;20420;-71
2021/10/01 11:52:00;;;;;;;0.30;0.30;;;22.80;54.30;;;;;;5134498;28;20752;-69
2021/10/01 11:54:26;;;;;;;0.30;0.30;;;22.70;54.90;;;;;;5134174;28;20406;-69
2021/10/01 11:57:01;;;;;;;0.30;0.30;;;22.60;54.10;;;;;;5134384;28;20450;-70
2021/10/01 11:59:48;;;;;;;0.50;0.50;;;22.70;55.00;;;;;;5134433;28;20174;-70
2021/10/01 12:02:35;;;;;;;0.47;0.47;;;22.50;54.00;;;;;;5134544;28;20397;-69
2021/10/01 12:05:22;;;;;;;0.47;0.47;;;22.50;57.30;;;;;;5134256;28;20375;-69
2021/10/01 12:07:50;;;;;;;0.40;0.40;;;21.90;55.10;;;;;;5134558;28;20890;-68
2021/10/01 12:10:17;;;;;;;0.60;0.40;;;21.80;57.00;;;;;;5133669;28;20386;-70
2021/10/01 12:13:03;;;;;;;0.80;0.80;;;21.60;59.50;;;;;;5132656;28;20421;-69
2021/10/01 12:15:46;;;;;;;0.30;0.30;;;21.30;59.00;;;;;;5133885;28;20442;-69
2021/10/01 12:18:37;;;;;;;0.40;0.40;;;21.50;59.10;;;;;;5134259;28;20449;-67
2021/10/01 12:21:14;;;;;;;0.30;0.30;;;21.60;64.50;;;;;;5134409;28;20473;-69
2021/10/01 12:23:47;;;;;;;0.30;0.30;;;21.70;59.00;;;;;;5134009;28;20424;-71
2021/10/01 12:26:36;;;;;;;0.40;0.40;;;21.90;56.90;;;;;;5134255;28;20397;-70
2021/10/01 12:29:25;;;;;;;0.30;0.30;;;22.00;56.10;;;;;;5133485;27;20417;-69
2021/10/01 12:32:01;;;;;;;0.30;0.30;;;21.70;56.60;;;;;;5133485;28;20490;-69
2021/10/01 12:34:30;;;;;;;0.30;0.30;;;21.40;58.80;;;;;;5133787;28;20515;-70
2021/10/01 12:37:06;;;;;;;0.30;0.30;;;21.50;56.90;;;;;;5133922;28;20452;-67
2021/10/01 12:39:33;;;;;;;0.40;0.40;;;21.40;65.90;;;;;;5134235;28;20448;-70
2021/10/01 12:42:08;;;;;;;0.30;0.30;;;21.00;61.80;;;;;;5134058;28;20768;-68
2021/10/01 12:44:39;;;;;;;0.30;0.30;;;21.00;59.80;;;;;;5133719;28;20432;-68
2021/10/01 12:47:21;;;;;;;0.30;0.30;;;21.10;60.10;;;;;;5133785;28;20432;-69
2021/10/01 12:50:15;;;;;;;0.30;0.30;;;21.10;64.80;;;;;;5133916;28;20404;-70
2021/10/01 12:52:44;;;;;;;0.30;0.30;;;20.80;60.80;;;;;;5130866;28;20484;-69
2021/10/01 12:55:15;;;;;;;0.40;0.40;;;20.80;63.10;;;;;;5133877;28;20416;-71
2021/10/01 12:57:45;;;;;;;0.57;0.57;;;20.80;63.10;;;;;;5135792;27;20451;-69
2021/10/01 13:00:21;;;;;;;0.30;0.30;;;20.90;64.00;;;;;;5137549;27;20487;-69
2021/10/01 13:02:50;;;;;;;0.40;0.40;;;20.80;64.40;;;;;;5137734;27;20426;-69
2021/10/01 13:05:17;;;;;;;0.40;0.40;;;20.70;66.80;;;;;;5137373;27;20737;-68
2021/10/01 13:07:58;;;;;;;0.50;0.50;;;20.60;68.80;;;;;;5137416;27;20408;-70
2021/10/01 13:10:38;;;;;;;2.10;2.00;;;20.40;66.40;;;;;;5137338;27;20404;-71
2021/10/01 13:13:15;;;;;;;0.30;0.30;;;20.20;68.60;;;;;;5137325;27;20439;-67
2021/10/01 13:15:41;;;;;;;0.30;0.30;;;20.10;66.90;;;;;;5137552;27;20441;-70
2021/10/01 13:18:14;;;;;;;0.30;0.30;;;19.60;67.30;;;;;;5137276;27;20476;-70
2021/10/01 13:21:12;;;;;;;0.30;0.30;;;19.30;67.90;;;;;;5137372;27;20534;-71
2021/10/01 13:23:43;;;;;;;0.40;0.40;;;19.40;71.90;;;;;;5130443;27;20437;-68
2021/10/01 13:26:15;;;;;;;0.50;0.50;;;19.30;69.80;;;;;;5137197;27;20413;-67
2021/10/01 13:28:50;;;;;;;0.80;0.80;;;19.20;72.30;;;;;;5137132;27;20429;-70
2021/10/01 13:31:18;;;;;;;0.30;0.30;;;18.90;71.50;;;;;;5137113;27;20408;-68
2021/10/01 13:33:44;;;;;;;0.40;0.40;;;18.80;78.00;;;;;;5118139;27;20469;-70
2021/10/01 13:36:11;;;;;;;0.30;0.30;;;18.60;81.20;;;;;;5136855;27;20932;-69
2021/10/01 13:38:38;;;;;;;0.70;0.70;;;18.50;80.20;;;;;;5136751;27;20830;-68
2021/10/01 13:41:05;;;;;;;1.03;0.93;;;18.40;83.80;;;;;;5136921;27;20860;-68
2021/10/01 13:43:32;;;;;;;0.30;0.30;;;18.30;81.30;;;;;;5136325;27;20436;-68
2021/10/01 13:45:59;;;;;;;0.30;0.30;;;18.20;77.20;;;;;;5136483;27;20437;-68
2021/10/01 13:48:26;;;;;;;0.30;0.30;;;18.20;77.30;;;;;;5118569;27;20833;-68
2021/10/01 13:50:54;;;;;;;0.30;0.30;;;18.10;78.40;;;;;;5136640;27;20766;-69
2021/10/01 13:53:20;;;;;;;0.40;0.40;;;18.30;83.50;;;;;;5136272;27;20456;-68
2021/10/01 13:55:46;;;;;;;0.30;0.30;;;18.10;79.80;;;;;;5136449;27;20413;-70
2021/10/01 13:58:13;;;;;;;0.63;0.63;;;18.10;83.10;;;;;;5136546;27;20576;-69
2021/10/01 14:00:39;;;;;;;0.40;0.40;;;18.00;78.20;;;;;;5136349;27;20484;-69
2021/10/01 14:03:05;;;;;;;0.30;0.30;;;18.10;83.60;;;;;;5136265;27;20429;-67
2021/10/01 14:05:31;;;;;;;0.30;0.30;;;18.10;84.50;;;;;;5135932;27;20764;-70
2021/10/01 14:07:56;;;;;;;0.30;0.30;;;18.10;89.00;;;;;;5136026;27;20408;-68
2021/10/01 14:10:25;;;;;;;0.57;0.57;;;18.00;90.00;;;;;;5136157;27;20175;-68
2021/10/01 14:12:52;;;;;;;0.57;0.57;;;17.90;89.20;;;;;;5135990;27;20188;-67
2021/10/01 14:15:21;;;;;;;0.50;0.50;;;17.80;91.00;;;;;;5135910;27;20919;-67
2021/10/01 14:17:47;;;;;;;0.30;0.30;;;17.70;90.40;;;;;;5135990;27;20953;-69
2021/10/01 14:20:16;;;;;;;0.77;0.73;;;17.60;88.10;;;;;;5136017;27;20408;-68
2021/10/01 14:22:43;;;;;;;0.67;0.67;;;17.60;91.20;;;;;;5135907;27;20417;-68
2021/10/01 14:25:10;;;;;;;0.30;0.30;;;17.60;92.40;;;;;;5135590;27;20410;-69
2021/10/01 14:27:37;;;;;;;0.30;0.30;;;17.40;91.40;;;;;;5135846;27;20409;-67
2021/10/01 14:30:07;;;;;;;0.30;0.30;;;17.40;93.10;;;;;;5136013;27;20500;-68
2021/10/01 14:32:33;;;;;;;0.30;0.30;;;17.30;93.70;;;;;;5135521;27;20409;-68
2021/10/01 14:34:59;;;;;;;0.30;0.30;;;17.20;94.20;;;;;;5135662;27;20415;-68
2021/10/01 14:37:25;;;;;;;0.67;0.67;;;17.20;94.50;;;;;;5135497;27;20213;-68
2021/10/01 14:39:51;;;;;;;0.60;0.60;;;17.10;94.80;;;;;;5135575;27;20399;-67